createdAt,value
2018-09-18T00:00:39.718Z,0.00
2018-09-18T00:01:39.713Z,0.00
2018-09-18T00:02:39.848Z,0.00
2018-09-18T00:03:39.686Z,0.00
2018-09-18T00:04:39.963Z,0.00
2018-09-18T00:05:39.670Z,0.00
2018-09-18T00:06:39.650Z,0.00
2018-09-18T00:07:39.653Z,0.00
2018-09-18T00:08:39.633Z,0.00
2018-09-18T00:09:39.625Z,0.00
2018-09-18T00:10:39.648Z,0.00
2018-09-18T00:11:39.604Z,0.00
2018-09-18T00:12:39.594Z,0.00
2018-09-18T00:13:39.579Z,0.00
2018-09-18T00:14:39.583Z,0.00
2018-09-18T00:15:39.606Z,0.00
2018-09-18T00:16:39.556Z,0.00
2018-09-18T00:17:39.548Z,0.00
2018-09-18T00:18:39.535Z,0.00
2018-09-18T00:19:39.532Z,0.00
2018-09-18T00:20:39.514Z,0.00
2018-09-18T00:21:39.498Z,0.00
2018-09-18T00:22:39.492Z,0.00
2018-09-18T00:23:39.485Z,0.00
2018-09-18T00:24:39.475Z,0.00
2018-09-18T00:25:39.494Z,0.00
2018-09-18T00:26:39.484Z,0.00
2018-09-18T00:27:39.438Z,0.00
2018-09-18T00:28:39.429Z,0.00
2018-09-18T00:29:39.423Z,0.00
2018-09-18T00:30:39.405Z,0.00
2018-09-18T00:31:39.440Z,0.00
2018-09-18T00:32:39.415Z,0.00
2018-09-18T00:33:39.371Z,0.00
2018-09-18T00:34:39.364Z,0.00
2018-09-18T00:35:39.348Z,0.00
2018-09-18T00:36:39.349Z,0.00
2018-09-18T00:37:39.429Z,0.00
2018-09-18T00:38:39.321Z,0.00
2018-09-18T00:39:39.313Z,0.00
2018-09-18T00:40:39.307Z,0.00
2018-09-18T00:41:39.297Z,0.00
2018-09-18T00:42:39.279Z,0.00
2018-09-18T00:43:39.278Z,0.00
2018-09-18T00:44:39.250Z,0.00
2018-09-18T00:45:39.238Z,0.00
2018-09-18T00:46:39.238Z,0.00
2018-09-18T00:47:39.255Z,0.00
2018-09-18T00:48:39.217Z,0.00
2018-09-18T00:49:39.239Z,0.00
2018-09-18T00:50:39.199Z,0.00
2018-09-18T00:51:39.175Z,0.00
2018-09-18T00:52:39.177Z,0.00
2018-09-18T00:53:39.176Z,0.00
2018-09-18T00:54:39.192Z,0.00
2018-09-18T00:55:39.147Z,0.00
2018-09-18T00:56:39.130Z,0.00
2018-09-18T00:57:39.113Z,0.00
2018-09-18T00:58:39.109Z,0.00
2018-09-18T00:59:39.133Z,0.00
2018-09-18T01:00:39.086Z,0.00
2018-09-18T01:01:39.067Z,0.00
2018-09-18T01:02:39.093Z,0.00
2018-09-18T01:03:39.048Z,0.00
2018-09-18T01:04:39.050Z,0.00
2018-09-18T01:05:39.044Z,0.00
2018-09-18T01:06:39.019Z,0.00
2018-09-18T01:07:39.015Z,0.00
2018-09-18T01:08:39.014Z,0.00
2018-09-18T01:09:38.991Z,0.00
2018-09-18T01:10:39.009Z,0.00
2018-09-18T01:11:38.972Z,0.00
2018-09-18T01:12:38.952Z,0.00
2018-09-18T01:13:38.949Z,0.00
2018-09-18T01:14:38.940Z,0.00
2018-09-18T01:15:38.928Z,0.00
2018-09-18T01:16:38.927Z,0.00
2018-09-18T01:17:38.920Z,0.00
2018-09-18T01:18:38.901Z,0.00
2018-09-18T01:19:38.891Z,0.00
2018-09-18T01:20:39.147Z,0.00
2018-09-18T01:21:38.864Z,0.00
2018-09-18T01:22:38.861Z,0.00
2018-09-18T01:23:38.832Z,0.00
2018-09-18T01:24:38.829Z,0.00
2018-09-18T01:25:38.817Z,0.00
2018-09-18T01:26:38.836Z,0.00
2018-09-18T01:27:38.796Z,0.00
2018-09-18T01:28:38.776Z,0.00
2018-09-18T01:29:38.775Z,0.00
2018-09-18T01:30:38.766Z,0.00
2018-09-18T01:31:38.809Z,0.00
2018-09-18T01:32:38.747Z,0.00
2018-09-18T01:33:38.734Z,0.00
2018-09-18T01:34:38.759Z,0.00
2018-09-18T01:35:38.714Z,0.00
2018-09-18T01:36:38.694Z,0.00
2018-09-18T01:37:38.720Z,0.00
2018-09-18T01:38:38.701Z,0.00
2018-09-18T01:39:38.667Z,0.00
2018-09-18T01:40:38.641Z,0.00
2018-09-18T01:41:38.645Z,0.00
2018-09-18T01:42:38.643Z,0.00
2018-09-18T01:43:38.660Z,0.00
2018-09-18T01:44:38.615Z,0.00
2018-09-18T01:45:38.605Z,0.00
2018-09-18T01:46:38.588Z,0.00
2018-09-18T01:47:38.575Z,0.00
2018-09-18T01:48:38.624Z,0.00
2018-09-18T01:49:38.568Z,0.00
2018-09-18T01:50:38.540Z,0.00
2018-09-18T01:51:38.530Z,0.00
2018-09-18T01:52:38.521Z,0.00
2018-09-18T01:53:38.517Z,0.00
2018-09-18T01:54:38.537Z,0.00
2018-09-18T01:55:38.496Z,0.00
2018-09-18T01:56:38.475Z,0.00
2018-09-18T01:57:38.462Z,0.00
2018-09-18T01:58:38.492Z,0.00
2018-09-18T01:59:38.443Z,0.00
2018-09-18T02:00:38.437Z,0.00
2018-09-18T02:01:38.426Z,0.00
2018-09-18T02:02:38.407Z,0.00
2018-09-18T02:03:38.432Z,0.00
2018-09-18T02:04:38.422Z,0.00
2018-09-18T02:05:38.379Z,0.00
2018-09-18T02:06:38.391Z,0.00
2018-09-18T02:07:38.352Z,0.00
2018-09-18T02:08:38.353Z,0.00
2018-09-18T02:09:38.339Z,0.00
2018-09-18T02:10:38.322Z,0.00
2018-09-18T02:11:38.344Z,0.00
2018-09-18T02:12:38.302Z,0.00
2018-09-18T02:13:38.295Z,0.00
2018-09-18T02:14:38.281Z,0.00
2018-09-18T02:15:38.302Z,0.00
2018-09-18T02:16:38.257Z,0.00
2018-09-18T02:17:38.251Z,0.00
2018-09-18T02:18:38.232Z,0.00
2018-09-18T02:19:38.219Z,0.00
2018-09-18T02:20:38.271Z,0.00
2018-09-18T02:21:38.205Z,0.00
2018-09-18T02:22:38.183Z,0.00
2018-09-18T02:23:38.183Z,0.00
2018-09-18T02:24:38.173Z,0.00
2018-09-18T02:25:38.157Z,0.00
2018-09-18T02:26:38.204Z,0.00
2018-09-18T02:27:38.142Z,0.00
2018-09-18T02:28:38.127Z,0.00
2018-09-18T02:29:38.122Z,0.00
2018-09-18T02:30:38.109Z,0.00
2018-09-18T02:31:38.093Z,0.00
2018-09-18T02:32:38.084Z,0.00
2018-09-18T02:33:38.068Z,0.00
2018-09-18T02:34:38.065Z,0.00
2018-09-18T02:35:38.040Z,0.00
2018-09-18T02:36:38.041Z,0.00
2018-09-18T02:37:38.047Z,0.00
2018-09-18T02:38:38.018Z,0.00
2018-09-18T02:39:38.010Z,0.00
2018-09-18T02:40:37.996Z,0.00
2018-09-18T02:41:37.975Z,0.00
2018-09-18T02:42:38.055Z,0.00
2018-09-18T02:43:37.972Z,0.00
2018-09-18T02:44:37.948Z,0.00
2018-09-18T02:45:37.929Z,0.00
2018-09-18T02:46:37.927Z,0.00
2018-09-18T02:47:37.917Z,0.00
2018-09-18T02:48:37.932Z,0.00
2018-09-18T02:49:37.891Z,0.00
2018-09-18T02:50:37.876Z,0.00
2018-09-18T02:51:37.872Z,0.00
2018-09-18T02:52:37.859Z,0.00
2018-09-18T02:53:37.881Z,0.00
2018-09-18T02:54:37.861Z,0.00
2018-09-18T02:55:37.826Z,0.00
2018-09-18T02:56:37.805Z,0.00
2018-09-18T02:57:37.793Z,0.00
2018-09-18T02:58:37.788Z,0.00
2018-09-18T02:59:38.041Z,0.00
2018-09-18T03:00:37.771Z,0.00
2018-09-18T03:01:37.756Z,0.00
2018-09-18T03:02:37.748Z,0.00
2018-09-18T03:03:37.739Z,0.00
2018-09-18T03:04:37.721Z,0.00
2018-09-18T03:05:37.747Z,0.00
2018-09-18T03:06:37.695Z,0.00
2018-09-18T03:07:37.692Z,0.00
2018-09-18T03:08:37.672Z,0.00
2018-09-18T03:09:37.668Z,0.00
2018-09-18T03:10:37.686Z,0.00
2018-09-18T03:11:37.635Z,0.00
2018-09-18T03:12:37.635Z,0.00
2018-09-18T03:13:37.626Z,0.00
2018-09-18T03:14:37.615Z,0.00
2018-09-18T03:15:37.661Z,0.00
2018-09-18T03:16:37.589Z,0.00
2018-09-18T03:17:37.570Z,0.00
2018-09-18T03:18:37.564Z,0.00
2018-09-18T03:19:37.562Z,0.00
2018-09-18T03:20:37.545Z,0.00
2018-09-18T03:21:37.571Z,0.00
2018-09-18T03:22:37.546Z,0.00
2018-09-18T03:23:37.526Z,0.00
2018-09-18T03:24:37.493Z,0.00
2018-09-18T03:25:37.489Z,0.00
2018-09-18T03:26:37.484Z,0.00
2018-09-18T03:27:37.487Z,0.00
2018-09-18T03:28:37.457Z,0.00
2018-09-18T03:29:37.504Z,0.00
2018-09-18T03:30:37.436Z,0.00
2018-09-18T03:31:37.422Z,0.00
2018-09-18T03:32:37.410Z,0.00
2018-09-18T03:33:37.399Z,0.00
2018-09-18T03:34:37.391Z,0.00
2018-09-18T03:35:37.462Z,0.00
2018-09-18T03:36:37.366Z,0.00
2018-09-18T03:37:37.404Z,0.00
2018-09-18T03:38:37.333Z,0.00
2018-09-18T03:39:37.335Z,0.00
2018-09-18T03:40:37.321Z,0.00
2018-09-18T03:41:37.298Z,0.00
2018-09-18T03:42:37.287Z,0.00
2018-09-18T03:43:37.326Z,0.00
2018-09-18T03:44:37.270Z,0.00
2018-09-18T03:45:37.263Z,0.00
2018-09-18T03:46:37.253Z,0.00
2018-09-18T03:47:37.230Z,0.00
2018-09-18T03:48:37.231Z,0.00
2018-09-18T03:49:37.260Z,0.00
2018-09-18T03:50:37.202Z,0.00
2018-09-18T03:51:37.200Z,0.00
2018-09-18T03:52:37.192Z,0.00
2018-09-18T03:53:37.167Z,0.00
2018-09-18T03:54:37.189Z,0.00
2018-09-18T03:55:37.147Z,0.00
2018-09-18T03:56:37.136Z,0.00
2018-09-18T03:57:37.122Z,0.00
2018-09-18T03:58:37.111Z,0.00
2018-09-18T03:59:37.100Z,0.00
2018-09-18T04:00:37.109Z,0.00
2018-09-18T04:01:37.081Z,0.00
2018-09-18T04:02:37.066Z,0.00
2018-09-18T04:03:37.056Z,0.00
2018-09-18T04:04:37.052Z,0.00
2018-09-18T04:05:37.089Z,0.00
2018-09-18T04:06:37.019Z,0.00
2018-09-18T04:07:37.007Z,0.00
2018-09-18T04:08:36.992Z,0.00
2018-09-18T04:09:36.986Z,0.00
2018-09-18T04:10:36.971Z,0.00
2018-09-18T04:11:36.975Z,0.00
2018-09-18T04:12:36.960Z,0.00
2018-09-18T04:13:36.930Z,0.00
2018-09-18T04:14:36.922Z,0.00
2018-09-18T04:15:36.924Z,0.00
2018-09-18T04:16:36.956Z,0.00
2018-09-18T04:17:36.884Z,0.00
2018-09-18T04:18:36.890Z,0.00
2018-09-18T04:19:36.874Z,0.00
2018-09-18T04:20:36.856Z,0.00
2018-09-18T04:21:36.842Z,0.00
2018-09-18T04:22:36.893Z,0.00
2018-09-18T04:23:36.822Z,0.00
2018-09-18T04:24:36.822Z,0.00
2018-09-18T04:25:36.799Z,0.00
2018-09-18T04:26:36.791Z,0.00
2018-09-18T04:27:36.802Z,0.00
2018-09-18T04:28:36.769Z,0.00
2018-09-18T04:29:36.760Z,0.00
2018-09-18T04:30:36.744Z,0.00
2018-09-18T04:31:36.728Z,0.00
2018-09-18T04:32:36.742Z,0.00
2018-09-18T04:33:36.709Z,0.00
2018-09-18T04:34:36.701Z,0.00
2018-09-18T04:35:36.688Z,0.00
2018-09-18T04:36:36.680Z,0.00
2018-09-18T04:37:36.664Z,0.00
2018-09-18T04:38:36.657Z,0.00
2018-09-18T04:39:36.675Z,0.00
2018-09-18T04:40:36.632Z,0.00
2018-09-18T04:41:36.615Z,0.00
2018-09-18T04:42:36.601Z,0.00
2018-09-18T04:43:36.626Z,0.00
2018-09-18T04:44:36.586Z,0.00
2018-09-18T04:45:36.607Z,0.00
2018-09-18T04:46:36.557Z,0.00
2018-09-18T04:47:36.545Z,0.00
2018-09-18T04:48:36.533Z,0.00
2018-09-18T04:49:36.542Z,0.00
2018-09-18T04:50:36.511Z,0.00
2018-09-18T04:51:36.499Z,0.00
2018-09-18T04:52:36.486Z,0.00
2018-09-18T04:53:36.480Z,0.00
2018-09-18T04:54:36.502Z,0.00
2018-09-18T04:55:36.453Z,0.00
2018-09-18T04:56:36.437Z,0.00
2018-09-18T04:57:36.433Z,0.00
2018-09-18T04:58:36.419Z,0.00
2018-09-18T04:59:36.443Z,0.00
2018-09-18T05:00:36.400Z,0.00
2018-09-18T05:01:36.378Z,0.00
2018-09-18T05:02:36.372Z,0.00
2018-09-18T05:03:36.368Z,0.00
2018-09-18T05:04:36.413Z,0.00
2018-09-18T05:05:36.342Z,0.00
2018-09-18T05:06:36.318Z,0.00
2018-09-18T05:07:36.319Z,0.00
2018-09-18T05:08:36.295Z,0.00
2018-09-18T05:09:36.289Z,0.00
2018-09-18T05:10:36.310Z,0.00
2018-09-18T05:11:36.267Z,0.00
2018-09-18T05:12:36.257Z,0.00
2018-09-18T05:13:36.249Z,0.00
2018-09-18T05:14:36.223Z,0.00
2018-09-18T05:15:36.247Z,0.00
2018-09-18T05:16:36.241Z,0.00
2018-09-18T05:17:36.239Z,0.00
2018-09-18T05:18:36.190Z,0.00
2018-09-18T05:19:36.173Z,0.00
2018-09-18T05:20:36.164Z,0.00
2018-09-18T05:21:36.200Z,0.00
2018-09-18T05:22:36.139Z,0.00
2018-09-18T05:23:36.116Z,5.63
2018-09-18T05:24:36.108Z,5.63
2018-09-18T05:25:36.198Z,5.63
2018-09-18T05:26:36.098Z,5.63
2018-09-18T05:27:36.137Z,5.63
2018-09-18T05:28:36.061Z,5.63
2018-09-18T05:29:36.066Z,5.63
2018-09-18T05:30:36.042Z,5.63
2018-09-18T05:31:36.023Z,5.63
2018-09-18T05:32:36.029Z,5.63
2018-09-18T05:33:36.061Z,5.63
2018-09-18T05:34:36.033Z,5.63
2018-09-18T05:35:35.986Z,5.63
2018-09-18T05:36:35.969Z,11.25
2018-09-18T05:37:35.974Z,11.25
2018-09-18T05:38:35.948Z,11.25
2018-09-18T05:39:35.992Z,11.25
2018-09-18T05:40:35.928Z,11.25
2018-09-18T05:41:35.909Z,11.25
2018-09-18T05:42:35.899Z,11.25
2018-09-18T05:43:35.890Z,11.25
2018-09-18T05:44:35.884Z,11.25
2018-09-18T05:45:35.891Z,11.25
2018-09-18T05:46:35.851Z,11.25
2018-09-18T05:47:35.835Z,11.25
2018-09-18T05:48:35.839Z,11.25
2018-09-18T05:49:35.873Z,11.25
2018-09-18T05:50:35.817Z,16.88
2018-09-18T05:51:35.793Z,16.88
2018-09-18T05:52:35.784Z,16.88
2018-09-18T05:53:35.781Z,16.88
2018-09-18T05:54:35.765Z,16.88
2018-09-18T05:55:35.787Z,16.88
2018-09-18T05:56:35.744Z,16.88
2018-09-18T05:57:35.738Z,16.88
2018-09-18T05:58:35.717Z,16.88
2018-09-18T05:59:35.711Z,22.50
2018-09-18T06:00:35.732Z,22.50
2018-09-18T06:01:35.692Z,22.50
2018-09-18T06:02:35.666Z,22.50
2018-09-18T06:03:35.678Z,22.50
2018-09-18T06:04:35.656Z,22.50
2018-09-18T06:05:35.647Z,22.50
2018-09-18T06:06:35.662Z,22.50
2018-09-18T06:07:35.614Z,22.50
2018-09-18T06:08:35.609Z,22.50
2018-09-18T06:09:35.591Z,22.50
2018-09-18T06:10:35.572Z,22.50
2018-09-18T06:11:35.784Z,22.50
2018-09-18T06:12:35.625Z,22.50
2018-09-18T06:13:35.549Z,22.50
2018-09-18T06:14:35.535Z,28.13
2018-09-18T06:15:35.532Z,28.13
2018-09-18T06:16:35.512Z,28.13
2018-09-18T06:17:35.542Z,28.13
2018-09-18T06:18:35.525Z,28.13
2018-09-18T06:19:35.543Z,28.13
2018-09-18T06:20:35.476Z,28.13
2018-09-18T06:21:35.461Z,28.13
2018-09-18T06:22:35.441Z,28.13
2018-09-18T06:23:35.432Z,28.13
2018-09-18T06:24:35.414Z,28.13
2018-09-18T06:25:35.414Z,28.13
2018-09-18T06:26:35.404Z,28.13
2018-09-18T06:27:35.390Z,28.13
2018-09-18T06:28:35.379Z,28.13
2018-09-18T06:29:35.374Z,28.13
2018-09-18T06:30:35.399Z,28.13
2018-09-18T06:31:35.344Z,28.13
2018-09-18T06:32:35.328Z,28.13
2018-09-18T06:33:35.322Z,28.13
2018-09-18T06:34:35.317Z,28.13
2018-09-18T06:35:35.333Z,28.13
2018-09-18T06:36:35.330Z,28.13
2018-09-18T06:37:35.284Z,33.75
2018-09-18T06:38:35.268Z,33.75
2018-09-18T06:39:35.264Z,33.75
2018-09-18T06:40:35.241Z,28.13
2018-09-18T06:41:35.264Z,33.75
2018-09-18T06:42:35.225Z,33.75
2018-09-18T06:43:35.212Z,33.75
2018-09-18T06:44:35.206Z,33.75
2018-09-18T06:45:35.183Z,33.75
2018-09-18T06:46:35.217Z,33.75
2018-09-18T06:47:35.158Z,33.75
2018-09-18T06:48:35.159Z,33.75
2018-09-18T06:49:35.154Z,33.75
2018-09-18T06:50:35.163Z,33.75
2018-09-18T06:51:35.117Z,33.75
2018-09-18T06:52:35.112Z,33.75
2018-09-18T06:53:35.106Z,33.75
2018-09-18T06:54:35.190Z,33.75
2018-09-18T06:55:35.070Z,33.75
2018-09-18T06:56:35.072Z,33.75
2018-09-18T06:57:35.068Z,33.75
2018-09-18T06:58:35.051Z,33.75
2018-09-18T06:59:35.086Z,33.75
2018-09-18T07:00:35.030Z,33.75
2018-09-18T07:01:35.020Z,33.75
2018-09-18T07:02:35.008Z,33.75
2018-09-18T07:03:34.998Z,33.75
2018-09-18T07:04:34.987Z,33.75
2018-09-18T07:05:34.995Z,33.75
2018-09-18T07:06:34.966Z,33.75
2018-09-18T07:07:34.952Z,28.13
2018-09-18T07:08:34.973Z,28.13
2018-09-18T07:09:34.920Z,28.13
2018-09-18T07:10:34.922Z,28.13
2018-09-18T07:11:34.952Z,28.13
2018-09-18T07:12:34.899Z,33.75
2018-09-18T07:13:34.879Z,33.75
2018-09-18T07:14:34.880Z,33.75
2018-09-18T07:15:34.891Z,33.75
2018-09-18T07:16:35.138Z,33.75
2018-09-18T07:17:34.837Z,33.75
2018-09-18T07:18:34.839Z,45.00
2018-09-18T07:19:34.825Z,50.63
2018-09-18T07:20:34.813Z,45.00
2018-09-18T07:21:34.809Z,39.38
2018-09-18T07:22:34.796Z,39.38
2018-09-18T07:23:34.789Z,33.75
2018-09-18T07:24:34.776Z,33.75
2018-09-18T07:25:34.759Z,39.38
2018-09-18T07:26:34.806Z,39.38
2018-09-18T07:27:34.735Z,33.75
2018-09-18T07:28:34.732Z,33.75
2018-09-18T07:29:34.730Z,33.75
2018-09-18T07:30:34.716Z,33.75
2018-09-18T07:31:34.698Z,33.75
2018-09-18T07:32:34.698Z,33.75
2018-09-18T07:33:34.684Z,33.75
2018-09-18T07:34:34.671Z,33.75
2018-09-18T07:35:34.704Z,33.75
2018-09-18T07:36:34.671Z,33.75
2018-09-18T07:37:34.643Z,33.75
2018-09-18T07:38:34.637Z,33.75
2018-09-18T07:39:34.629Z,39.38
2018-09-18T07:40:34.636Z,39.38
2018-09-18T07:41:34.599Z,50.63
2018-09-18T07:42:34.596Z,78.75
2018-09-18T07:43:34.611Z,90.00
2018-09-18T07:44:34.571Z,101.25
2018-09-18T07:45:34.601Z,90.00
2018-09-18T07:46:34.553Z,101.25
2018-09-18T07:47:34.540Z,84.38
2018-09-18T07:48:34.598Z,61.88
2018-09-18T07:49:34.524Z,67.50
2018-09-18T07:50:34.506Z,67.50
2018-09-18T07:51:34.510Z,78.75
2018-09-18T07:52:34.485Z,112.50
2018-09-18T07:53:34.479Z,157.50
2018-09-18T07:54:34.495Z,151.88
2018-09-18T07:55:34.466Z,101.25
2018-09-18T07:56:34.449Z,73.13
2018-09-18T07:57:34.445Z,78.75
2018-09-18T07:58:34.430Z,118.13
2018-09-18T07:59:34.439Z,73.13
2018-09-18T08:00:34.448Z,50.63
2018-09-18T08:01:34.399Z,73.13
2018-09-18T08:02:34.410Z,84.38
2018-09-18T08:03:34.401Z,56.25
2018-09-18T08:04:34.392Z,45.00
2018-09-18T08:05:34.372Z,45.00
2018-09-18T08:06:34.399Z,39.38
2018-09-18T08:07:34.356Z,39.38
2018-09-18T08:08:34.344Z,39.38
2018-09-18T08:09:34.339Z,39.38
2018-09-18T08:10:34.322Z,45.00
2018-09-18T08:11:34.383Z,39.38
2018-09-18T08:12:34.312Z,39.38
2018-09-18T08:13:34.295Z,50.63
2018-09-18T08:14:34.296Z,45.00
2018-09-18T08:15:34.285Z,56.25
2018-09-18T08:16:34.272Z,146.25
2018-09-18T08:17:34.310Z,140.63
2018-09-18T08:18:34.254Z,61.88
2018-09-18T08:19:34.409Z,61.88
2018-09-18T08:20:34.239Z,84.38
2018-09-18T08:21:34.221Z,50.63
2018-09-18T08:22:34.207Z,50.63
2018-09-18T08:23:34.237Z,78.75
2018-09-18T08:24:34.216Z,90.00
2018-09-18T08:25:34.207Z,45.00
2018-09-18T08:26:34.176Z,45.00
2018-09-18T08:27:34.169Z,45.00
2018-09-18T08:28:34.194Z,45.00
2018-09-18T08:29:34.154Z,45.00
2018-09-18T08:30:34.153Z,45.00
2018-09-18T08:31:34.125Z,73.13
2018-09-18T08:32:34.168Z,101.25
2018-09-18T08:33:34.147Z,50.63
2018-09-18T08:34:34.107Z,50.63
2018-09-18T08:35:34.095Z,50.63
2018-09-18T08:36:34.097Z,50.63
2018-09-18T08:37:34.083Z,50.63
2018-09-18T08:38:34.070Z,50.63
2018-09-18T08:39:34.083Z,50.63
2018-09-18T08:40:34.085Z,50.63
2018-09-18T08:41:34.097Z,106.88
2018-09-18T08:42:34.033Z,140.63
2018-09-18T08:43:34.035Z,61.88
2018-09-18T08:44:34.118Z,61.88
2018-09-18T08:45:34.019Z,61.88
2018-09-18T08:46:34.007Z,50.63
2018-09-18T08:47:34.020Z,50.63
2018-09-18T08:48:34.018Z,50.63
2018-09-18T08:49:33.983Z,50.63
2018-09-18T08:50:33.998Z,50.63
2018-09-18T08:51:34.021Z,50.63
2018-09-18T08:52:33.989Z,56.25
2018-09-18T08:53:33.946Z,56.25
2018-09-18T08:54:34.043Z,95.63
2018-09-18T08:55:33.998Z,73.13
2018-09-18T08:56:33.921Z,73.13
2018-09-18T08:57:33.926Z,140.63
2018-09-18T08:58:33.897Z,129.38
2018-09-18T08:59:33.896Z,106.88
2018-09-18T09:00:33.877Z,84.38
2018-09-18T09:01:33.909Z,90.00
2018-09-18T09:02:33.895Z,135.00
2018-09-18T09:03:33.881Z,146.25
2018-09-18T09:04:33.864Z,331.88
2018-09-18T09:05:33.849Z,264.38
2018-09-18T09:06:33.880Z,202.50
2018-09-18T09:07:33.991Z,286.88
2018-09-18T09:08:33.863Z,466.88
2018-09-18T09:09:33.843Z,416.25
2018-09-18T09:10:33.878Z,348.75
2018-09-18T09:11:33.804Z,129.38
2018-09-18T09:12:33.791Z,73.13
2018-09-18T09:13:33.822Z,67.50
2018-09-18T09:14:33.789Z,67.50
2018-09-18T09:15:33.840Z,73.13
2018-09-18T09:16:33.766Z,67.50
2018-09-18T09:17:33.772Z,61.88
2018-09-18T09:18:33.840Z,78.75
2018-09-18T09:19:33.746Z,67.50
2018-09-18T09:20:33.733Z,61.88
2018-09-18T09:21:33.751Z,61.88
2018-09-18T09:22:33.750Z,61.88
2018-09-18T09:23:33.767Z,67.50
2018-09-18T09:24:33.742Z,73.13
2018-09-18T09:25:33.712Z,67.50
2018-09-18T09:26:33.788Z,61.88
2018-09-18T09:27:33.742Z,61.88
2018-09-18T09:28:33.841Z,61.88
2018-09-18T09:29:33.698Z,61.88
2018-09-18T09:30:33.697Z,61.88
2018-09-18T09:31:33.670Z,61.88
2018-09-18T09:32:33.658Z,67.50
2018-09-18T09:33:33.671Z,67.50
2018-09-18T09:34:33.661Z,61.88
2018-09-18T09:35:33.674Z,61.88
2018-09-18T09:36:33.640Z,61.88
2018-09-18T09:37:33.628Z,61.88
2018-09-18T09:38:33.627Z,61.88
2018-09-18T09:39:33.605Z,67.50
2018-09-18T09:40:33.641Z,61.88
2018-09-18T09:41:33.601Z,61.88
2018-09-18T09:42:33.599Z,61.88
2018-09-18T09:43:33.599Z,67.50
2018-09-18T09:44:33.586Z,67.50
2018-09-18T09:45:33.612Z,67.50
2018-09-18T09:46:33.583Z,67.50
2018-09-18T09:47:33.560Z,67.50
2018-09-18T09:48:33.571Z,67.50
2018-09-18T09:49:33.552Z,67.50
2018-09-18T09:50:33.577Z,67.50
2018-09-18T09:51:33.556Z,78.75
2018-09-18T09:52:33.536Z,67.50
2018-09-18T09:53:33.557Z,67.50
2018-09-18T09:54:33.527Z,67.50
2018-09-18T09:55:33.512Z,67.50
2018-09-18T09:56:33.508Z,67.50
2018-09-18T09:57:33.511Z,67.50
2018-09-18T09:58:33.500Z,67.50
2018-09-18T09:59:33.510Z,73.13
2018-09-18T10:00:33.496Z,73.13
2018-09-18T10:01:33.483Z,73.13
2018-09-18T10:02:33.476Z,78.75
2018-09-18T10:03:33.507Z,78.75
2018-09-18T10:04:33.465Z,73.13
2018-09-18T10:05:33.462Z,84.38
2018-09-18T10:06:33.449Z,84.38
2018-09-18T10:07:33.455Z,73.13
2018-09-18T10:08:33.715Z,73.13
2018-09-18T10:09:33.439Z,73.13
2018-09-18T10:10:33.513Z,73.13
2018-09-18T10:11:33.429Z,90.00
2018-09-18T10:12:33.417Z,73.13
2018-09-18T10:13:33.410Z,73.13
2018-09-18T10:14:33.456Z,73.13
2018-09-18T10:15:33.419Z,73.13
2018-09-18T10:16:33.401Z,73.13
2018-09-18T10:17:33.400Z,73.13
2018-09-18T10:18:33.376Z,73.13
2018-09-18T10:19:33.383Z,73.13
2018-09-18T10:20:33.402Z,73.13
2018-09-18T10:21:33.371Z,78.75
2018-09-18T10:22:33.360Z,73.13
2018-09-18T10:23:33.373Z,78.75
2018-09-18T10:24:33.354Z,191.25
2018-09-18T10:25:33.376Z,78.75
2018-09-18T10:26:33.418Z,73.13
2018-09-18T10:27:33.364Z,73.13
2018-09-18T10:28:33.337Z,73.13
2018-09-18T10:29:33.330Z,73.13
2018-09-18T10:30:33.343Z,73.13
2018-09-18T10:31:33.309Z,73.13
2018-09-18T10:32:33.397Z,73.13
2018-09-18T10:33:33.309Z,73.13
2018-09-18T10:34:33.297Z,78.75
2018-09-18T10:35:33.325Z,73.13
2018-09-18T10:36:33.336Z,73.13
2018-09-18T10:37:33.281Z,73.13
2018-09-18T10:38:33.275Z,84.38
2018-09-18T10:39:33.276Z,78.75
2018-09-18T10:40:33.267Z,78.75
2018-09-18T10:41:33.366Z,84.38
2018-09-18T10:42:33.329Z,84.38
2018-09-18T10:43:33.249Z,73.13
2018-09-18T10:44:33.237Z,73.13
2018-09-18T10:45:33.237Z,73.13
2018-09-18T10:46:33.236Z,73.13
2018-09-18T10:47:33.243Z,73.13
2018-09-18T10:48:33.260Z,73.13
2018-09-18T10:49:33.315Z,78.75
2018-09-18T10:50:33.214Z,78.75
2018-09-18T10:51:33.214Z,78.75
2018-09-18T10:52:33.218Z,78.75
2018-09-18T10:53:33.197Z,78.75
2018-09-18T10:54:33.186Z,78.75
2018-09-18T10:55:33.270Z,84.38
2018-09-18T10:56:33.183Z,78.75
2018-09-18T10:57:33.185Z,78.75
2018-09-18T10:58:33.183Z,73.13
2018-09-18T10:59:33.166Z,78.75
2018-09-18T11:00:33.171Z,78.75
2018-09-18T11:01:33.182Z,78.75
2018-09-18T11:02:33.153Z,78.75
2018-09-18T11:03:33.172Z,78.75
2018-09-18T11:04:33.183Z,78.75
2018-09-18T11:05:33.193Z,78.75
2018-09-18T11:06:33.188Z,78.75
2018-09-18T11:07:33.172Z,78.75
2018-09-18T11:08:33.148Z,123.75
2018-09-18T11:09:33.176Z,84.38
2018-09-18T11:10:33.217Z,84.38
2018-09-18T11:11:33.154Z,95.63
2018-09-18T11:12:33.142Z,78.75
2018-09-18T11:13:33.231Z,84.38
2018-09-18T11:14:33.120Z,84.38
2018-09-18T11:15:33.215Z,78.75
2018-09-18T11:16:33.123Z,78.75
2018-09-18T11:17:33.085Z,78.75
2018-09-18T11:18:33.146Z,84.38
2018-09-18T11:19:33.155Z,78.75
2018-09-18T11:20:33.364Z,78.75
2018-09-18T11:21:33.144Z,84.38
2018-09-18T11:22:33.086Z,84.38
2018-09-18T11:23:33.092Z,84.38
2018-09-18T11:24:33.090Z,78.75
2018-09-18T11:25:33.058Z,84.38
2018-09-18T11:26:33.087Z,84.38
2018-09-18T11:27:33.074Z,84.38
2018-09-18T11:28:33.074Z,84.38
2018-09-18T11:29:33.057Z,84.38
2018-09-18T11:30:33.044Z,84.38
2018-09-18T11:31:33.040Z,95.63
2018-09-18T11:32:33.051Z,95.63
2018-09-18T11:33:33.100Z,90.00
2018-09-18T11:34:33.020Z,95.63
2018-09-18T11:35:33.017Z,95.63
2018-09-18T11:36:33.006Z,101.25
2018-09-18T11:37:33.007Z,95.63
2018-09-18T11:38:32.991Z,101.25
2018-09-18T11:39:33.029Z,95.63
2018-09-18T11:40:32.994Z,90.00
2018-09-18T11:41:32.990Z,95.63
2018-09-18T11:42:33.000Z,95.63
2018-09-18T11:43:32.990Z,101.25
2018-09-18T11:44:33.050Z,95.63
2018-09-18T11:45:33.009Z,95.63
2018-09-18T11:46:32.998Z,101.25
2018-09-18T11:47:32.972Z,101.25
2018-09-18T11:48:32.975Z,106.88
2018-09-18T11:49:32.953Z,106.88
2018-09-18T11:50:32.961Z,123.75
2018-09-18T11:51:32.963Z,112.50
2018-09-18T11:52:32.955Z,315.00
2018-09-18T11:53:32.942Z,140.63
2018-09-18T11:54:32.943Z,270.00
2018-09-18T11:55:33.013Z,1766.25
2018-09-18T11:56:32.980Z,2041.88
2018-09-18T11:57:32.945Z,1698.75
2018-09-18T11:58:32.921Z,1878.75
2018-09-18T11:59:32.926Z,2475.00
2018-09-18T12:00:32.925Z,2632.50
2018-09-18T12:01:32.957Z,1985.63
2018-09-18T12:02:32.947Z,399.38
2018-09-18T12:03:32.919Z,871.88
2018-09-18T12:04:32.952Z,478.13
2018-09-18T12:05:32.914Z,230.63
2018-09-18T12:06:32.939Z,140.63
2018-09-18T12:07:32.907Z,123.75
2018-09-18T12:08:32.993Z,118.13
2018-09-18T12:09:32.900Z,118.13
2018-09-18T12:10:32.914Z,118.13
2018-09-18T12:11:32.982Z,118.13
2018-09-18T12:12:32.905Z,129.38
2018-09-18T12:13:32.963Z,151.88
2018-09-18T12:14:32.898Z,140.63
2018-09-18T12:15:32.900Z,135.00
2018-09-18T12:16:32.893Z,112.50
2018-09-18T12:17:32.892Z,118.13
2018-09-18T12:18:32.894Z,129.38
2018-09-18T12:19:32.919Z,123.75
2018-09-18T12:20:32.881Z,174.38
2018-09-18T12:21:32.888Z,123.75
2018-09-18T12:22:32.956Z,140.63
2018-09-18T12:23:32.884Z,118.13
2018-09-18T12:24:32.917Z,191.25
2018-09-18T12:25:32.882Z,118.13
2018-09-18T12:26:32.881Z,118.13
2018-09-18T12:27:32.919Z,118.13
2018-09-18T12:28:32.938Z,118.13
2018-09-18T12:29:32.871Z,112.50
2018-09-18T12:30:32.909Z,185.63
2018-09-18T12:31:32.861Z,146.25
2018-09-18T12:32:32.853Z,135.00
2018-09-18T12:33:32.867Z,140.63
2018-09-18T12:34:32.881Z,376.88
2018-09-18T12:35:33.089Z,123.75
2018-09-18T12:36:32.853Z,151.88
2018-09-18T12:37:32.855Z,129.38
2018-09-18T12:38:32.851Z,157.50
2018-09-18T12:39:32.845Z,213.75
2018-09-18T12:40:32.880Z,258.75
2018-09-18T12:41:32.944Z,286.88
2018-09-18T12:42:32.986Z,208.13
2018-09-18T12:43:32.845Z,343.13
2018-09-18T12:44:32.844Z,596.25
2018-09-18T12:45:32.950Z,163.13
2018-09-18T12:46:32.836Z,123.75
2018-09-18T12:47:32.840Z,123.75
2018-09-18T12:48:32.841Z,95.63
2018-09-18T12:49:32.941Z,129.38
2018-09-18T12:50:32.937Z,112.50
2018-09-18T12:51:32.950Z,118.13
2018-09-18T12:52:32.820Z,106.88
2018-09-18T12:53:32.816Z,129.38
2018-09-18T12:54:32.808Z,123.75
2018-09-18T12:55:32.818Z,123.75
2018-09-18T12:56:32.806Z,101.25
2018-09-18T12:57:32.952Z,118.13
2018-09-18T12:58:32.872Z,191.25
2018-09-18T12:59:32.817Z,236.25